Time;durP1;ratioP1;P1;durP2;ratioP2;P2;SDS_P1;SDS_P2;PMS_P1;PMS_P2;Temp;Humidity;BMP_temperature;BMP_pressure;BME280_temperature;BME280_humidity;BME280_pressure;Samples;Min_cycle;Max_cycle;Signal;HPM_P1;HPM_P2
2023/12/14 00:02:16;;;;;;;36.38;22.77;;;;;;;;;;4996935;28;20073;-59
2023/12/14 00:04:41;;;;;;;36.30;22.10;;;;;;;;;;4996707;28;20030;-59
2023/12/14 00:07:07;;;;;;;37.60;22.73;;;;;;;;;;4996811;28;20042;-59
2023/12/14 00:09:33;;;;;;;38.40;23.67;;;;;;;;;;4997277;28;20093;-60
2023/12/14 00:11:58;;;;;;;40.30;22.98;;;;;;;;;;4996643;28;20035;-59
2023/12/14 00:14:24;;;;;;;38.80;22.13;;;;;;;;;;4997303;28;20025;-58
2023/12/14 00:16:49;;;;;;;36.25;21.38;;;;;;;;;;4995253;28;20081;-58
2023/12/14 00:19:15;;;;;;;33.63;21.08;;;;;;;;;;4995446;28;20114;-58
2023/12/14 00:21:40;;;;;;;32.28;20.27;;;;;;;;;;5006923;28;20120;-58
2023/12/14 00:24:06;;;;;;;34.13;20.58;;;;;;;;;;5016078;28;20018;-58
2023/12/14 00:26:31;;;;;;;45.63;25.17;;;;;;;;;;5014500;28;20383;-58
2023/12/14 00:28:58;;;;;;;85.70;42.22;;;;;;;;;;5016475;28;20044;-58
2023/12/14 00:31:23;;;;;;;74.55;37.33;;;;;;;;;;5016108;28;20034;-58
2023/12/14 00:33:48;;;;;;;74.35;37.40;;;;;;;;;;5016171;28;20093;-58
2023/12/14 00:36:17;;;;;;;70.45;35.88;;;;;;;;;;5016111;28;20026;-58
2023/12/14 00:38:43;;;;;;;67.20;35.78;;;;;;;;;;5016057;28;20445;-58
2023/12/14 00:41:08;;;;;;;69.88;35.20;;;;;;;;;;5015981;28;20022;-59
2023/12/14 00:43:33;;;;;;;65.10;33.80;;;;;;;;;;5015406;28;20045;-60
2023/12/14 00:45:59;;;;;;;71.28;36.55;;;;;;;;;;5014681;28;20376;-60
2023/12/14 00:48:24;;;;;;;71.05;36.15;;;;;;;;;;4998126;28;20080;-60
2023/12/14 00:50:49;;;;;;;68.90;35.20;;;;;;;;;;5015555;28;20053;-60
2023/12/14 00:53:15;;;;;;;50.88;27.67;;;;;;;;;;5015586;28;20029;-60
2023/12/14 00:55:40;;;;;;;35.08;20.92;;;;;;;;;;5014111;28;20361;-61
2023/12/14 00:58:05;;;;;;;33.78;20.25;;;;;;;;;;5015679;28;20026;-58
2023/12/14 01:00:31;;;;;;;28.63;17.58;;;;;;;;;;4981601;28;20018;-59
2023/12/14 01:02:56;;;;;;;32.85;18.10;;;;;;;;;;5016013;28;20376;-58
2023/12/14 01:05:21;;;;;;;32.78;18.55;;;;;;;;;;5015438;28;20452;-58
2023/12/14 01:07:47;;;;;;;30.88;17.83;;;;;;;;;;5015597;28;20034;-58
2023/12/14 01:10:12;;;;;;;31.05;18.70;;;;;;;;;;5015468;28;20113;-59
2023/12/14 01:12:37;;;;;;;30.67;17.95;;;;;;;;;;5015550;28;20114;-59
2023/12/14 01:15:03;;;;;;;31.30;19.15;;;;;;;;;;4997540;28;20113;-58
2023/12/14 01:17:29;;;;;;;32.03;18.55;;;;;;;;;;5015672;28;20026;-59
2023/12/14 01:19:54;;;;;;;32.03;18.67;;;;;;;;;;5015659;28;20022;-59
2023/12/14 01:22:19;;;;;;;33.25;19.17;;;;;;;;;;5015451;28;20042;-59
2023/12/14 01:24:45;;;;;;;30.42;17.63;;;;;;;;;;5015241;28;20029;-59
2023/12/14 01:27:13;;;;;;;30.17;18.65;;;;;;;;;;5015405;28;20449;-59
2023/12/14 01:29:39;;;;;;;33.25;19.67;;;;;;;;;;5015384;28;20045;-59
2023/12/14 01:32:04;;;;;;;30.95;19.00;;;;;;;;;;5015194;28;20025;-58
2023/12/14 01:34:29;;;;;;;37.10;20.55;;;;;;;;;;4997764;28;20042;-57
2023/12/14 01:36:55;;;;;;;33.75;19.77;;;;;;;;;;5015053;28;20033;-57
2023/12/14 01:39:20;;;;;;;38.47;20.58;;;;;;;;;;4997368;28;20029;-57
2023/12/14 01:41:45;;;;;;;36.40;21.35;;;;;;;;;;5015296;28;20021;-57
2023/12/14 01:44:11;;;;;;;42.35;23.67;;;;;;;;;;5014882;28;20424;-57
2023/12/14 01:46:36;;;;;;;41.47;23.00;;;;;;;;;;5014565;28;20025;-58
2023/12/14 01:49:01;;;;;;;41.95;23.73;;;;;;;;;;5013185;28;20112;-58
2023/12/14 01:51:27;;;;;;;38.17;22.13;;;;;;;;;;5014987;28;20025;-58
2023/12/14 01:53:52;;;;;;;38.55;21.20;;;;;;;;;;5014738;28;20038;-58
2023/12/14 01:56:18;;;;;;;37.50;20.48;;;;;;;;;;5014583;28;20410;-58
2023/12/14 01:58:43;;;;;;;37.17;20.38;;;;;;;;;;5013564;28;20482;-58
2023/12/14 02:01:22;;;;;;;37.78;20.52;;;;;;;;;;5014606;28;20040;-58
2023/12/14 02:03:49;;;;;;;37.38;20.90;;;;;;;;;;5014542;28;20022;-58
2023/12/14 02:06:15;;;;;;;38.15;20.45;;;;;;;;;;5013021;28;20030;-58
2023/12/14 02:08:40;;;;;;;39.35;20.45;;;;;;;;;;4996673;28;20034;-57
2023/12/14 02:11:05;;;;;;;36.90;20.75;;;;;;;;;;5014468;28;20080;-57
2023/12/14 02:13:31;;;;;;;36.92;20.58;;;;;;;;;;4996537;28;20037;-58
2023/12/14 02:15:56;;;;;;;42.95;22.70;;;;;;;;;;5013603;28;20376;-58
2023/12/14 02:18:22;;;;;;;39.65;21.15;;;;;;;;;;4997381;28;20459;-57
2023/12/14 02:20:48;;;;;;;36.67;19.90;;;;;;;;;;5014212;28;20123;-58
2023/12/14 02:23:13;;;;;;;32.30;19.25;;;;;;;;;;5014306;28;20030;-58
2023/12/14 02:25:39;;;;;;;32.35;18.23;;;;;;;;;;5014089;28;20040;-57
2023/12/14 02:28:04;;;;;;;32.80;18.38;;;;;;;;;;5014397;28;20049;-58
2023/12/14 02:30:29;;;;;;;32.35;18.23;;;;;;;;;;5013938;28;20030;-57
2023/12/14 02:32:55;;;;;;;31.13;17.80;;;;;;;;;;5013929;28;20033;-58
2023/12/14 02:35:20;;;;;;;30.48;17.48;;;;;;;;;;5014215;28;20029;-58
2023/12/14 02:37:45;;;;;;;32.47;18.17;;;;;;;;;;5014429;28;20026;-58
2023/12/14 02:40:11;;;;;;;31.77;17.40;;;;;;;;;;5014358;28;20057;-58
2023/12/14 02:42:37;;;;;;;36.33;19.25;;;;;;;;;;5013806;28;20105;-58
2023/12/14 02:45:02;;;;;;;28.83;16.92;;;;;;;;;;4996979;28;20423;-59
2023/12/14 02:47:28;;;;;;;34.40;18.55;;;;;;;;;;5014062;28;20536;-59
2023/12/14 02:49:54;;;;;;;33.05;18.08;;;;;;;;;;5015694;28;20033;-59
2023/12/14 02:52:19;;;;;;;30.58;18.08;;;;;;;;;;5000654;28;20051;-59
2023/12/14 02:54:45;;;;;;;33.97;18.35;;;;;;;;;;5016325;28;20117;-59
2023/12/14 02:57:10;;;;;;;32.92;18.67;;;;;;;;;;5018278;28;20057;-59
2023/12/14 02:59:35;;;;;;;30.10;17.50;;;;;;;;;;5000243;28;20117;-59
2023/12/14 03:02:00;;;;;;;32.17;18.48;;;;;;;;;;5018260;28;20520;-59
2023/12/14 03:04:26;;;;;;;29.55;17.77;;;;;;;;;;5017827;28;20025;-59
2023/12/14 03:06:52;;;;;;;30.58;17.98;;;;;;;;;;5018024;28;20041;-59
2023/12/14 03:09:19;;;;;;;29.75;17.27;;;;;;;;;;5018012;28;20076;-58
2023/12/14 03:11:44;;;;;;;32.63;18.00;;;;;;;;;;5018144;28;20029;-58
2023/12/14 03:14:09;;;;;;;31.85;18.80;;;;;;;;;;5017626;28;20041;-57
2023/12/14 03:16:35;;;;;;;30.40;18.10;;;;;;;;;;4999674;28;20153;-58
2023/12/14 03:19:01;;;;;;;30.60;18.50;;;;;;;;;;5017631;28;20021;-58
2023/12/14 03:21:26;;;;;;;31.25;18.13;;;;;;;;;;5017116;28;20065;-58
2023/12/14 03:23:51;;;;;;;30.20;18.10;;;;;;;;;;5000097;28;20033;-57
2023/12/14 03:26:17;;;;;;;30.05;17.65;;;;;;;;;;5017781;28;20038;-57
2023/12/14 03:28:42;;;;;;;30.20;17.27;;;;;;;;;;5017232;28;20030;-57
2023/12/14 03:31:10;;;;;;;26.95;17.05;;;;;;;;;;5016495;28;20095;-58
2023/12/14 03:33:36;;;;;;;26.63;15.70;;;;;;;;;;5017455;28;20057;-58
2023/12/14 03:36:02;;;;;;;26.23;15.85;;;;;;;;;;5017378;28;20432;-57
2023/12/14 03:38:27;;;;;;;21.38;14.63;;;;;;;;;;5017627;28;20057;-58
2023/12/14 03:40:53;;;;;;;21.50;14.40;;;;;;;;;;5017286;28;20039;-58
2023/12/14 03:43:18;;;;;;;20.67;14.02;;;;;;;;;;5016807;28;20052;-58
2023/12/14 03:45:44;;;;;;;20.85;14.18;;;;;;;;;;5017058;28;20025;-58
2023/12/14 03:48:10;;;;;;;21.65;14.18;;;;;;;;;;5015522;28;20478;-58
2023/12/14 03:50:35;;;;;;;19.25;13.65;;;;;;;;;;5016962;28;20112;-58
2023/12/14 03:53:01;;;;;;;19.38;13.05;;;;;;;;;;5016888;28;20034;-58
2023/12/14 03:55:26;;;;;;;17.23;12.50;;;;;;;;;;5016910;28;20038;-58
2023/12/14 03:57:52;;;;;;;20.27;14.80;;;;;;;;;;5016729;28;20038;-58
2023/12/14 04:00:17;;;;;;;24.77;16.58;;;;;;;;;;5015977;28;20030;-57
2023/12/14 04:02:43;;;;;;;28.98;17.83;;;;;;;;;;5016863;28;20041;-58
2023/12/14 04:05:08;;;;;;;21.35;14.68;;;;;;;;;;5016719;28;20456;-58
2023/12/14 04:07:40;;;;;;;19.92;12.80;;;;;;;;;;5016685;28;20022;-59
2023/12/14 04:10:06;;;;;;;18.02;12.80;;;;;;;;;;5016658;28;20145;-58
2023/12/14 04:12:31;;;;;;;19.55;13.63;;;;;;;;;;5016776;28;20483;-60
2023/12/14 04:14:57;;;;;;;20.05;13.07;;;;;;;;;;5016793;28;20034;-59
2023/12/14 04:17:23;;;;;;;17.10;12.98;;;;;;;;;;4999206;28;20030;-59
2023/12/14 04:19:48;;;;;;;20.85;13.25;;;;;;;;;;5016589;28;20487;-59
2023/12/14 04:22:13;;;;;;;17.98;12.52;;;;;;;;;;5016755;28;20120;-59
2023/12/14 04:24:39;;;;;;;17.02;12.13;;;;;;;;;;4999054;28;20029;-59
2023/12/14 04:27:04;;;;;;;18.10;12.70;;;;;;;;;;5016065;28;20025;-59
2023/12/14 04:29:29;;;;;;;16.95;12.55;;;;;;;;;;5015709;28;20368;-58
2023/12/14 04:31:55;;;;;;;17.80;12.55;;;;;;;;;;5015529;28;20483;-58
2023/12/14 04:34:20;;;;;;;16.42;11.05;;;;;;;;;;5014431;28;20053;-63
2023/12/14 04:36:46;;;;;;;17.88;12.68;;;;;;;;;;5015305;28;20068;-59
2023/12/14 04:39:18;;;;;;;22.27;13.27;;;;;;;;;;5015626;28;20030;-59
2023/12/14 04:41:44;;;;;;;23.48;15.38;;;;;;;;;;5016126;28;20041;-58
2023/12/14 04:44:15;;;;;;;22.67;14.82;;;;;;;;;;5016123;28;20018;-59
2023/12/14 04:46:40;;;;;;;24.48;15.23;;;;;;;;;;5015155;28;20108;-59
2023/12/14 04:49:09;;;;;;;24.08;14.95;;;;;;;;;;5015281;28;20116;-59
2023/12/14 04:51:34;;;;;;;21.73;14.30;;;;;;;;;;5015619;28;20040;-59
2023/12/14 04:53:59;;;;;;;22.25;14.13;;;;;;;;;;5014674;28;20018;-59
2023/12/14 04:56:25;;;;;;;21.75;14.48;;;;;;;;;;5014143;28;20048;-59
2023/12/14 04:58:50;;;;;;;21.45;14.15;;;;;;;;;;5014660;28;20376;-59
2023/12/14 05:01:16;;;;;;;19.25;14.07;;;;;;;;;;4996295;28;20653;-58
2023/12/14 05:03:41;;;;;;;23.48;14.98;;;;;;;;;;4978988;28;20084;-58
2023/12/14 05:06:07;;;;;;;24.25;14.93;;;;;;;;;;4995165;28;20064;-58
2023/12/14 05:08:33;;;;;;;21.80;13.77;;;;;;;;;;5012853;28;20026;-58
2023/12/14 05:10:59;;;;;;;20.23;14.10;;;;;;;;;;5012966;28;20520;-58
2023/12/14 05:13:25;;;;;;;19.83;13.38;;;;;;;;;;5012921;28;20037;-59
2023/12/14 05:15:51;;;;;;;18.58;13.60;;;;;;;;;;5012105;28;20088;-59
2023/12/14 05:18:17;;;;;;;18.92;13.27;;;;;;;;;;5013102;28;20684;-59
2023/12/14 05:20:42;;;;;;;18.60;13.25;;;;;;;;;;5012585;28;20026;-59
2023/12/14 05:23:08;;;;;;;17.95;13.25;;;;;;;;;;5013616;28;20095;-59
2023/12/14 05:25:34;;;;;;;16.85;11.70;;;;;;;;;;5013204;28;20084;-59
2023/12/14 05:27:59;;;;;;;15.88;11.82;;;;;;;;;;5013712;28;20026;-58
2023/12/14 05:30:24;;;;;;;26.88;15.25;;;;;;;;;;5013431;28;20026;-61
2023/12/14 05:32:50;;;;;;;31.73;19.55;;;;;;;;;;4996064;28;20104;-59
2023/12/14 05:35:15;;;;;;;48.75;25.73;;;;;;;;;;5013544;28;20428;-59
2023/12/14 05:37:41;;;;;;;37.17;21.70;;;;;;;;;;5013065;28;20058;-58
2023/12/14 05:40:07;;;;;;;23.45;17.00;;;;;;;;;;5013973;28;20510;-59
2023/12/14 05:42:33;;;;;;;22.67;17.27;;;;;;;;;;5014368;28;20014;-59
2023/12/14 05:44:58;;;;;;;22.05;17.10;;;;;;;;;;5014485;28;20101;-59
2023/12/14 05:47:25;;;;;;;20.98;15.95;;;;;;;;;;5013604;28;20073;-59
2023/12/14 05:49:51;;;;;;;19.20;14.38;;;;;;;;;;5013442;28;20037;-59
2023/12/14 05:52:16;;;;;;;17.15;12.98;;;;;;;;;;4995900;28;20034;-59
2023/12/14 05:54:41;;;;;;;15.82;12.35;;;;;;;;;;4995937;28;20028;-59
2023/12/14 05:57:07;;;;;;;16.23;13.00;;;;;;;;;;5013174;28;20034;-59
2023/12/14 05:59:32;;;;;;;18.60;13.38;;;;;;;;;;5013343;28;20080;-58
2023/12/14 06:01:58;;;;;;;17.27;12.90;;;;;;;;;;5013262;28;20034;-58
2023/12/14 06:04:23;;;;;;;19.00;13.98;;;;;;;;;;5013183;28;20065;-58
2023/12/14 06:06:48;;;;;;;19.05;14.18;;;;;;;;;;5013195;28;20121;-58
2023/12/14 06:09:14;;;;;;;19.92;13.48;;;;;;;;;;4995678;28;20365;-58
2023/12/14 06:11:39;;;;;;;15.35;10.93;;;;;;;;;;4996511;28;20494;-58
2023/12/14 06:14:05;;;;;;;12.68;9.77;;;;;;;;;;4996611;28;20488;-59
2023/12/14 06:16:30;;;;;;;16.50;11.68;;;;;;;;;;4996497;28;20045;-59
2023/12/14 06:18:56;;;;;;;16.85;12.27;;;;;;;;;;4996908;28;20088;-59
2023/12/14 06:21:25;;;;;;;18.48;12.82;;;;;;;;;;5014199;28;20045;-58
2023/12/14 06:23:50;;;;;;;17.85;13.15;;;;;;;;;;5012463;28;20468;-58
2023/12/14 06:26:15;;;;;;;25.17;16.48;;;;;;;;;;5014038;28;20057;-58
2023/12/14 06:28:41;;;;;;;27.15;19.23;;;;;;;;;;5014126;28;20037;-58
2023/12/14 06:31:11;;;;;;;26.85;19.10;;;;;;;;;;5014295;28;20037;-58
2023/12/14 06:33:36;;;;;;;28.92;19.65;;;;;;;;;;5013967;28;20030;-58
2023/12/14 06:36:05;;;;;;;30.23;19.92;;;;;;;;;;5013954;28;20049;-58
2023/12/14 06:38:31;;;;;;;31.15;20.65;;;;;;;;;;5014017;28;20444;-58
2023/12/14 06:40:56;;;;;;;24.52;16.83;;;;;;;;;;5014109;28;20026;-58
2023/12/14 06:43:21;;;;;;;22.98;16.20;;;;;;;;;;4996333;28;20104;-58
2023/12/14 06:45:47;;;;;;;19.70;14.88;;;;;;;;;;5014264;28;20034;-58
2023/12/14 06:48:12;;;;;;;18.67;14.40;;;;;;;;;;5013584;28;20038;-58
2023/12/14 06:50:37;;;;;;;18.33;12.38;;;;;;;;;;5013732;28;20026;-58
2023/12/14 06:53:03;;;;;;;16.73;11.77;;;;;;;;;;5013730;28;20026;-58
2023/12/14 06:55:28;;;;;;;13.07;10.75;;;;;;;;;;5013623;28;20447;-58
2023/12/14 06:57:54;;;;;;;13.70;10.60;;;;;;;;;;5013661;28;20060;-58
2023/12/14 07:00:19;;;;;;;13.00;10.07;;;;;;;;;;5013642;28;20034;-58
2023/12/14 07:02:44;;;;;;;12.88;9.93;;;;;;;;;;5013758;28;20026;-58
2023/12/14 07:05:10;;;;;;;11.27;9.30;;;;;;;;;;5014043;28;20026;-58
2023/12/14 07:07:35;;;;;;;14.52;10.05;;;;;;;;;;5013868;28;20037;-58
2023/12/14 07:10:01;;;;;;;13.98;10.57;;;;;;;;;;5013576;28;20101;-58
2023/12/14 07:12:26;;;;;;;16.33;12.73;;;;;;;;;;5013580;28;20168;-58
2023/12/14 07:14:51;;;;;;;22.50;14.80;;;;;;;;;;4996141;28;20076;-58
2023/12/14 07:17:17;;;;;;;19.17;14.05;;;;;;;;;;5013495;28;20105;-58
2023/12/14 07:19:42;;;;;;;16.90;12.45;;;;;;;;;;4996024;28;20105;-58
2023/12/14 07:22:07;;;;;;;15.80;11.68;;;;;;;;;;5013304;28;20184;-58
2023/12/14 07:24:33;;;;;;;13.57;10.55;;;;;;;;;;5013444;28;20476;-58
2023/12/14 07:26:58;;;;;;;13.32;9.98;;;;;;;;;;5013396;28;20530;-58
2023/12/14 07:29:23;;;;;;;13.98;9.95;;;;;;;;;;5013475;28;20034;-58
2023/12/14 07:31:49;;;;;;;14.68;10.90;;;;;;;;;;5013370;28;20022;-58
2023/12/14 07:34:14;;;;;;;16.90;12.48;;;;;;;;;;5013876;28;20033;-58
2023/12/14 07:36:40;;;;;;;22.27;17.75;;;;;;;;;;5017186;28;20038;-58
2023/12/14 07:39:06;;;;;;;24.02;19.33;;;;;;;;;;5017278;28;20113;-58
2023/12/14 07:41:32;;;;;;;28.92;20.23;;;;;;;;;;5016863;28;20101;-58
2023/12/14 07:43:58;;;;;;;19.58;15.70;;;;;;;;;;5016903;28;20018;-58
2023/12/14 07:46:23;;;;;;;13.63;10.77;;;;;;;;;;4999226;28;20531;-58
2023/12/14 07:48:49;;;;;;;10.50;9.40;;;;;;;;;;5016667;28;20472;-58
2023/12/14 07:51:14;;;;;;;10.05;8.65;;;;;;;;;;5016961;28;20026;-58
2023/12/14 07:53:41;;;;;;;9.57;8.50;;;;;;;;;;5016665;28;20045;-58
2023/12/14 07:56:06;;;;;;;12.13;9.18;;;;;;;;;;4998945;28;20392;-58
2023/12/14 07:58:31;;;;;;;10.00;8.05;;;;;;;;;;5016588;28;20030;-58
2023/12/14 08:00:57;;;;;;;10.52;8.48;;;;;;;;;;5016601;28;20022;-58
2023/12/14 08:03:22;;;;;;;10.82;8.32;;;;;;;;;;4999111;28;20037;-58
2023/12/14 08:05:47;;;;;;;13.82;10.07;;;;;;;;;;5016506;28;20037;-58
2023/12/14 08:08:13;;;;;;;16.67;11.68;;;;;;;;;;5016567;28;20033;-58
2023/12/14 08:10:38;;;;;;;17.15;12.45;;;;;;;;;;5016482;28;20290;-58
2023/12/14 08:13:03;;;;;;;13.85;11.43;;;;;;;;;;5016403;28;20018;-58
2023/12/14 08:15:29;;;;;;;15.27;10.93;;;;;;;;;;4998532;28;20096;-58
2023/12/14 08:17:55;;;;;;;12.98;10.25;;;;;;;;;;5016235;28;20126;-58
2023/12/14 08:20:20;;;;;;;12.32;10.02;;;;;;;;;;5016143;28;20082;-58
2023/12/14 08:22:46;;;;;;;12.85;9.82;;;;;;;;;;5015984;28;20392;-58
2023/12/14 08:25:13;;;;;;;12.55;9.10;;;;;;;;;;5016054;28;20058;-58
2023/12/14 08:27:38;;;;;;;12.95;9.43;;;;;;;;;;5016052;28;20104;-58
2023/12/14 08:30:05;;;;;;;13.18;9.52;;;;;;;;;;5015983;28;20022;-58
2023/12/14 08:32:30;;;;;;;14.10;10.02;;;;;;;;;;5015976;28;20020;-59
2023/12/14 08:34:55;;;;;;;14.02;10.23;;;;;;;;;;5015892;28;20033;-58
2023/12/14 08:37:22;;;;;;;13.93;10.10;;;;;;;;;;5015823;28;20109;-58
2023/12/14 08:39:47;;;;;;;14.18;10.02;;;;;;;;;;5015906;28;20486;-58
2023/12/14 08:42:12;;;;;;;14.70;10.82;;;;;;;;;;4998212;28;20026;-58
2023/12/14 08:44:41;;;;;;;16.58;11.02;;;;;;;;;;4998249;28;20033;-58
2023/12/14 08:47:08;;;;;;;33.25;15.57;;;;;;;;;;4997467;28;20042;-58
2023/12/14 08:49:34;;;;;;;27.63;14.15;;;;;;;;;;5015570;28;20038;-58
2023/12/14 08:51:59;;;;;;;40.63;25.65;;;;;;;;;;5015585;28;20080;-58
2023/12/14 08:54:25;;;;;;;56.03;33.95;;;;;;;;;;5015518;28;20365;-58
2023/12/14 08:56:50;;;;;;;31.13;19.42;;;;;;;;;;5015381;28;20034;-58
2023/12/14 08:59:15;;;;;;;23.05;15.77;;;;;;;;;;5015606;28;20086;-58
2023/12/14 09:01:41;;;;;;;21.73;16.27;;;;;;;;;;5015380;28;20041;-58
2023/12/14 09:04:06;;;;;;;19.48;14.55;;;;;;;;;;5015342;28;20030;-58
2023/12/14 09:06:31;;;;;;;17.48;13.25;;;;;;;;;;5015329;28;20034;-58
2023/12/14 09:08:57;;;;;;;16.23;12.20;;;;;;;;;;5015245;28;20030;-58
2023/12/14 09:11:23;;;;;;;17.17;11.98;;;;;;;;;;4997606;28;20400;-58
2023/12/14 09:13:50;;;;;;;19.88;12.93;;;;;;;;;;5015142;28;20052;-58
2023/12/14 09:16:16;;;;;;;20.90;13.35;;;;;;;;;;5015058;28;20037;-59
2023/12/14 09:18:42;;;;;;;23.50;14.82;;;;;;;;;;5015200;28;20014;-58
2023/12/14 09:21:07;;;;;;;23.20;14.35;;;;;;;;;;5014759;28;20049;-58
2023/12/14 09:23:33;;;;;;;20.90;14.82;;;;;;;;;;5015058;28;20476;-58
2023/12/14 09:25:58;;;;;;;24.55;14.60;;;;;;;;;;5014954;28;20042;-59
2023/12/14 09:28:24;;;;;;;32.33;16.48;;;;;;;;;;5015073;28;20088;-58
2023/12/14 09:30:50;;;;;;;24.10;14.20;;;;;;;;;;5014835;28;20388;-58
2023/12/14 09:33:15;;;;;;;19.05;13.20;;;;;;;;;;5014860;28;20022;-59
2023/12/14 09:35:41;;;;;;;20.63;14.05;;;;;;;;;;5014724;28;20037;-59
2023/12/14 09:38:06;;;;;;;19.27;13.77;;;;;;;;;;4997247;28;20084;-58
2023/12/14 09:40:31;;;;;;;19.30;13.25;;;;;;;;;;5014728;28;20030;-58
2023/12/14 09:42:57;;;;;;;19.13;13.20;;;;;;;;;;5014681;28;20080;-59
2023/12/14 09:45:28;;;;;;;19.75;14.10;;;;;;;;;;5014709;28;20014;-58
2023/12/14 09:47:53;;;;;;;20.80;14.63;;;;;;;;;;5014834;28;20170;-58
2023/12/14 09:50:20;;;;;;;23.73;15.18;;;;;;;;;;5026677;23;20148;-58
2023/12/14 09:52:47;;;;;;;26.73;15.68;;;;;;;;;;4996977;28;20026;-58
2023/12/14 09:55:12;;;;;;;27.77;16.00;;;;;;;;;;5014506;28;20034;-58
2023/12/14 09:57:39;;;;;;;25.45;15.98;;;;;;;;;;5013812;28;20042;-58
2023/12/14 10:00:09;;;;;;;28.40;16.67;;;;;;;;;;5014630;28;20465;-58
2023/12/14 10:02:34;;;;;;;;;;;;;;;;;;4997874;28;20030;-58
2023/12/14 10:05:00;;;;;;;21.63;14.75;;;;;;;;;;5014633;28;19909;-58
2023/12/14 10:07:25;;;;;;;20.30;13.68;;;;;;;;;;5014297;28;20030;-58
2023/12/14 10:09:52;;;;;;;22.77;13.98;;;;;;;;;;5014800;28;20029;-58
2023/12/14 10:12:18;;;;;;;22.75;14.73;;;;;;;;;;5014241;28;20040;-58
2023/12/14 10:14:43;;;;;;;24.27;15.30;;;;;;;;;;5014449;28;20112;-58
2023/12/14 10:17:16;;;;;;;25.90;15.27;;;;;;;;;;5014114;28;20034;-58
2023/12/14 10:19:42;;;;;;;27.77;16.10;;;;;;;;;;5014410;28;20065;-58
2023/12/14 10:22:08;;;;;;;26.27;15.80;;;;;;;;;;4997048;28;20080;-59
2023/12/14 10:24:34;;;;;;;23.60;15.00;;;;;;;;;;5014346;28;20025;-58
2023/12/14 10:27:04;;;;;;;22.63;14.93;;;;;;;;;;4997024;28;20033;-58
2023/12/14 10:29:32;;;;;;;22.73;15.00;;;;;;;;;;5014290;28;20037;-58
2023/12/14 10:31:58;;;;;;;22.00;13.00;;;;;;;;;;5014424;28;20038;-58
2023/12/14 10:34:23;;;;;;;20.48;14.00;;;;;;;;;;5014370;28;20034;-58
2023/12/14 10:36:49;;;;;;;20.65;14.13;;;;;;;;;;5014167;28;20041;-58
2023/12/14 10:39:18;;;;;;;20.05;12.82;;;;;;;;;;5013863;28;20071;-58
2023/12/14 10:41:49;;;;;;;18.17;12.80;;;;;;;;;;5013796;28;20029;-58
2023/12/14 10:44:16;;;;;;;18.52;13.43;;;;;;;;;;4996316;28;20079;-58
2023/12/14 10:46:42;;;;;;;20.42;13.43;;;;;;;;;;4996985;28;20018;-58
2023/12/14 10:49:07;;;;;;;21.38;14.10;;;;;;;;;;5013850;28;20042;-58
2023/12/14 10:51:34;;;;;;;48.13;26.85;;;;;;;;;;5014054;28;20029;-58
2023/12/14 10:54:00;;;;;;;31.85;19.00;;;;;;;;;;5013934;28;20068;-58
2023/12/14 10:56:26;;;;;;;26.17;16.42;;;;;;;;;;5013681;28;20041;-58
2023/12/14 10:58:53;;;;;;;27.75;16.98;;;;;;;;;;5013968;28;20029;-58
2023/12/14 11:01:20;;;;;;;30.42;17.27;;;;;;;;;;5012507;28;20469;-58
2023/12/14 11:03:46;;;;;;;28.58;17.35;;;;;;;;;;4996098;28;20388;-58
2023/12/14 11:06:24;;;;;;;37.90;19.80;;;;;;;;;;5013936;28;20461;-58
2023/12/14 11:08:58;;;;;;;31.45;17.33;;;;;;;;;;4995985;28;20026;-58
2023/12/14 11:11:27;;;;;;;29.25;17.83;;;;;;;;;;5017480;28;20460;-58
2023/12/14 11:13:53;;;;;;;33.70;19.70;;;;;;;;;;5017739;28;20061;-58
2023/12/14 11:16:27;;;;;;;48.88;24.55;;;;;;;;;;5017338;28;20455;-58
2023/12/14 11:19:13;;;;;;;45.63;23.65;;;;;;;;;;5017893;28;20041;-58
2023/12/14 11:21:39;;;;;;;34.47;21.48;;;;;;;;;;5000227;28;20045;-58
2023/12/14 11:24:05;;;;;;;39.35;22.88;;;;;;;;;;5017830;28;20104;-58
2023/12/14 11:26:31;;;;;;;41.00;22.60;;;;;;;;;;5017450;28;20037;-58
2023/12/14 11:28:56;;;;;;;54.35;31.75;;;;;;;;;;5017441;28;20029;-58
2023/12/14 11:31:23;;;;;;;41.55;25.30;;;;;;;;;;5017648;28;20044;-58
2023/12/14 11:33:48;;;;;;;39.25;22.63;;;;;;;;;;5016129;28;20021;-58
2023/12/14 11:36:14;;;;;;;39.28;22.15;;;;;;;;;;5017255;28;20038;-58
2023/12/14 11:38:39;;;;;;;43.42;23.23;;;;;;;;;;5015812;28;20105;-58
2023/12/14 11:41:05;;;;;;;46.00;23.13;;;;;;;;;;5016993;28;20483;-58
2023/12/14 11:43:38;;;;;;;42.33;21.85;;;;;;;;;;5016890;28;20529;-58
2023/12/14 11:46:03;;;;;;;42.92;22.65;;;;;;;;;;5017143;28;20040;-58
2023/12/14 11:48:29;;;;;;;40.42;22.98;;;;;;;;;;5016857;28;20198;-59
2023/12/14 11:50:54;;;;;;;41.50;23.13;;;;;;;;;;5016582;28;20034;-58
2023/12/14 11:53:19;;;;;;;40.22;22.83;;;;;;;;;;5016988;28;20113;-58
2023/12/14 11:55:45;;;;;;;38.47;21.85;;;;;;;;;;5016629;28;20093;-58
2023/12/14 11:58:15;;;;;;;37.95;22.27;;;;;;;;;;5016909;28;20037;-58
2023/12/14 12:00:41;;;;;;;32.38;19.13;;;;;;;;;;5016882;28;20030;-58
2023/12/14 12:03:10;;;;;;;33.28;19.60;;;;;;;;;;5016556;28;20084;-59
2023/12/14 12:05:40;;;;;;;35.22;20.63;;;;;;;;;;5017027;28;20026;-58
2023/12/14 12:08:06;;;;;;;32.83;20.00;;;;;;;;;;5016496;28;20030;-59
2023/12/14 12:10:32;;;;;;;33.30;20.23;;;;;;;;;;5015204;28;20026;-59
2023/12/14 12:13:02;;;;;;;32.55;20.25;;;;;;;;;;4999124;28;20109;-59
2023/12/14 12:15:27;;;;;;;33.23;20.00;;;;;;;;;;5016879;28;20452;-58
2023/12/14 12:17:53;;;;;;;35.92;21.52;;;;;;;;;;5016213;28;20048;-59
2023/12/14 12:20:19;;;;;;;35.67;21.00;;;;;;;;;;5016654;28;20373;-58
2023/12/14 12:22:44;;;;;;;35.33;21.52;;;;;;;;;;5015293;28;20034;-58
2023/12/14 12:25:10;;;;;;;31.42;19.88;;;;;;;;;;5016121;28;20018;-58
2023/12/14 12:27:35;;;;;;;33.33;20.05;;;;;;;;;;4999179;28;20045;-58
2023/12/14 12:30:00;;;;;;;32.40;20.15;;;;;;;;;;5016309;28;20049;-58
2023/12/14 12:32:25;;;;;;;33.28;20.00;;;;;;;;;;5016279;28;20030;-59
2023/12/14 12:34:52;;;;;;;32.05;20.25;;;;;;;;;;5016507;28;20038;-59
2023/12/14 12:37:17;;;;;;;32.78;19.35;;;;;;;;;;5016088;28;20030;-59
2023/12/14 12:39:43;;;;;;;30.77;19.45;;;;;;;;;;5014607;28;20108;-58
2023/12/14 12:42:08;;;;;;;29.80;18.77;;;;;;;;;;5015840;28;20037;-58
2023/12/14 12:44:34;;;;;;;34.47;21.20;;;;;;;;;;4998820;28;20034;-59
2023/12/14 12:46:59;;;;;;;31.55;20.50;;;;;;;;;;4998612;28;20034;-58
2023/12/14 12:49:24;;;;;;;29.38;19.55;;;;;;;;;;5016046;28;20044;-59
2023/12/14 12:51:50;;;;;;;28.15;19.13;;;;;;;;;;5015605;28;20435;-58
2023/12/14 12:54:15;;;;;;;32.38;19.95;;;;;;;;;;5015898;28;20026;-59
2023/12/14 12:56:42;;;;;;;30.42;19.80;;;;;;;;;;5014222;28;20116;-59
2023/12/14 12:59:08;;;;;;;27.70;18.45;;;;;;;;;;5015513;28;20021;-58
2023/12/14 13:01:33;;;;;;;29.88;18.95;;;;;;;;;;5015481;28;20034;-58
2023/12/14 13:03:58;;;;;;;28.92;17.98;;;;;;;;;;5015702;28;20116;-59
2023/12/14 13:06:25;;;;;;;29.10;18.08;;;;;;;;;;4997898;28;20045;-58
2023/12/14 13:08:50;;;;;;;27.95;18.77;;;;;;;;;;4981544;28;20140;-59
2023/12/14 13:11:16;;;;;;;30.20;18.92;;;;;;;;;;4997801;28;20477;-58
2023/12/14 13:13:41;;;;;;;25.80;18.35;;;;;;;;;;5015224;28;20026;-59
2023/12/14 13:16:07;;;;;;;28.05;18.73;;;;;;;;;;5015223;28;20030;-59
2023/12/14 13:18:32;;;;;;;28.10;18.33;;;;;;;;;;5015560;28;20100;-58
2023/12/14 13:20:57;;;;;;;27.25;18.05;;;;;;;;;;4997364;28;20030;-58
2023/12/14 13:23:23;;;;;;;28.45;17.73;;;;;;;;;;5014836;28;20116;-58
2023/12/14 13:25:48;;;;;;;25.23;17.60;;;;;;;;;;5014794;28;20025;-58
2023/12/14 13:28:14;;;;;;;26.55;18.10;;;;;;;;;;5014709;28;20448;-59
2023/12/14 13:30:40;;;;;;;25.30;17.30;;;;;;;;;;5014865;28;20349;-59
2023/12/14 13:33:06;;;;;;;28.40;18.13;;;;;;;;;;4996906;28;20133;-64
2023/12/14 13:35:32;;;;;;;27.33;17.90;;;;;;;;;;5013428;28;20026;-59
2023/12/14 13:37:57;;;;;;;24.55;17.17;;;;;;;;;;4977552;28;20496;-59
2023/12/14 13:40:23;;;;;;;26.75;17.65;;;;;;;;;;5011539;28;20050;-59
2023/12/14 13:42:48;;;;;;;26.55;17.67;;;;;;;;;;5014277;28;20033;-59
2023/12/14 13:45:14;;;;;;;25.25;16.55;;;;;;;;;;5014496;28;20026;-59
2023/12/14 13:47:39;;;;;;;29.42;18.48;;;;;;;;;;4996830;28;20038;-59
2023/12/14 13:50:05;;;;;;;27.67;17.63;;;;;;;;;;5013875;28;20038;-59
2023/12/14 13:52:30;;;;;;;28.17;18.80;;;;;;;;;;4996724;28;20034;-59
2023/12/14 13:54:59;;;;;;;29.25;19.33;;;;;;;;;;5014376;28;20030;-59
2023/12/14 13:57:24;;;;;;;28.20;18.33;;;;;;;;;;5010885;28;20439;-59
2023/12/14 13:59:49;;;;;;;26.92;17.65;;;;;;;;;;5004029;28;20033;-59
2023/12/14 14:02:15;;;;;;;21.38;16.42;;;;;;;;;;5003455;28;20421;-59
2023/12/14 14:04:40;;;;;;;25.08;16.98;;;;;;;;;;5010519;28;20030;-58
2023/12/14 14:07:06;;;;;;;22.85;15.32;;;;;;;;;;5014335;28;20105;-59
2023/12/14 14:09:32;;;;;;;21.67;14.90;;;;;;;;;;5013802;28;20110;-59
2023/12/14 14:11:58;;;;;;;19.25;14.85;;;;;;;;;;5014190;28;20439;-59